createdAt,value
2019-05-05T00:08:35.213Z,9.83
2019-05-05T00:18:41.017Z,8.80
2019-05-05T00:28:45.537Z,8.20
2019-05-05T00:38:50.030Z,7.73
2019-05-05T00:48:55.112Z,7.47
2019-05-05T00:59:01.386Z,9.20
2019-05-05T01:09:08.041Z,9.93
2019-05-05T01:19:14.913Z,11.20
2019-05-05T01:29:19.202Z,10.93
2019-05-05T01:39:25.670Z,16.17
2019-05-05T01:49:30.170Z,13.43
2019-05-05T01:59:35.501Z,12.73
2019-05-05T02:09:40.186Z,13.03
2019-05-05T02:19:45.933Z,11.83
2019-05-05T02:29:52.113Z,14.43
2019-05-05T02:40:02.647Z,12.73
2019-05-05T02:50:08.377Z,12.33
2019-05-05T03:00:26.995Z,12.73
2019-05-05T03:10:33.963Z,11.93
2019-05-05T03:20:39.775Z,13.13
2019-05-05T03:30:45.771Z,11.23
2019-05-05T03:40:54.128Z,12.40
2019-05-05T03:50:58.646Z,12.63
2019-05-05T04:01:36.481Z,14.93
2019-05-05T04:11:41.846Z,11.17
2019-05-05T04:21:48.355Z,12.20
2019-05-05T04:31:54.059Z,14.70
2019-05-05T04:41:58.702Z,14.77
2019-05-05T04:52:14.703Z,15.70
2019-05-05T05:02:29.880Z,13.87
2019-05-05T05:12:34.401Z,11.30
2019-05-05T05:22:38.899Z,11.20
2019-05-05T05:32:44.521Z,11.87
2019-05-05T05:42:49.368Z,12.97
2019-05-05T05:52:54.150Z,16.70
2019-05-05T06:02:58.691Z,13.57
2019-05-05T06:13:04.088Z,17.90
2019-05-05T06:23:09.842Z,13.40
2019-05-05T06:33:16.090Z,13.90
2019-05-05T06:43:40.257Z,16.17
2019-05-05T06:53:44.781Z,13.45
2019-05-05T07:03:50.238Z,10.70
2019-05-05T07:13:54.803Z,10.87
2019-05-05T07:23:59.425Z,9.83
2019-05-05T07:34:05.734Z,7.40
2019-05-05T07:44:25.073Z,6.83
2019-05-05T07:54:16.582Z,9.40
2019-05-05T08:04:21.246Z,8.27
2019-05-05T08:14:25.689Z,5.30
2019-05-05T08:24:47.808Z,4.83
2019-05-05T08:34:59.708Z,7.93
2019-05-05T08:44:59.535Z,5.90
2019-05-05T08:55:04.788Z,4.80
2019-05-05T09:05:09.433Z,5.83
2019-05-05T09:15:14.169Z,5.77
2019-05-05T09:25:35.006Z,4.10
2019-05-05T09:35:39.943Z,3.60
2019-05-05T09:45:44.440Z,3.60
2019-05-05T09:55:48.962Z,4.55
2019-05-05T10:05:54.111Z,2.87
2019-05-05T10:15:58.927Z,2.93
2019-05-05T10:26:05.486Z,3.63
2019-05-05T10:36:10.170Z,3.73
2019-05-05T10:46:14.693Z,2.93
2019-05-05T10:56:21.388Z,4.63
2019-05-05T11:06:26.017Z,3.47
2019-05-05T11:16:30.759Z,2.57
2019-05-05T11:26:35.542Z,2.83
2019-05-05T11:36:44.559Z,4.12
2019-05-05T11:46:49.140Z,3.63
2019-05-05T11:56:54.157Z,2.60
2019-05-05T12:06:58.891Z,2.33
2019-05-05T12:17:04.583Z,3.13
2019-05-05T12:27:11.248Z,3.07
2019-05-05T12:37:15.747Z,2.90
2019-05-05T12:47:24.643Z,2.30
2019-05-05T12:57:29.796Z,2.43
2019-05-05T13:07:34.602Z,2.25
2019-05-05T13:17:39.462Z,3.73
2019-05-05T13:27:45.785Z,2.17
2019-05-05T13:37:50.442Z,2.40
2019-05-05T13:47:55.761Z,2.00
2019-05-05T13:58:00.711Z,1.70
2019-05-05T14:08:05.456Z,3.47
2019-05-05T14:18:11.022Z,2.47
2019-05-05T14:28:18.154Z,2.13
2019-05-05T14:38:23.658Z,2.47
2019-05-05T14:48:28.068Z,2.37
2019-05-05T14:58:32.541Z,2.50
2019-05-05T15:08:38.781Z,2.13
2019-05-05T15:18:43.967Z,5.63
2019-05-05T15:29:00.715Z,1.93
2019-05-05T15:38:55.291Z,1.60
2019-05-05T15:48:59.862Z,3.27
2019-05-05T15:59:04.369Z,2.30
2019-05-05T16:09:09.283Z,2.20
2019-05-05T16:19:31.365Z,2.13
2019-05-05T16:29:35.796Z,2.90
2019-05-05T16:39:40.294Z,2.07
2019-05-05T16:49:44.923Z,1.80
2019-05-05T16:59:49.569Z,3.23
2019-05-05T17:09:55.532Z,3.43
2019-05-05T17:20:04.892Z,2.57
2019-05-05T17:30:10.011Z,2.15
2019-05-05T17:40:16.326Z,2.30
2019-05-05T17:50:23.821Z,2.62
2019-05-05T18:00:30.341Z,2.00
2019-05-05T18:10:42.228Z,3.43
2019-05-05T18:20:46.966Z,2.13
2019-05-05T18:30:53.817Z,2.87
2019-05-05T18:40:59.848Z,2.33
2019-05-05T18:51:06.451Z,14.63
2019-05-05T19:01:21.679Z,26.67
2019-05-05T19:11:26.322Z,29.23
2019-05-05T19:21:38.468Z,19.17
2019-05-05T19:31:43.808Z,17.67
2019-05-05T19:41:48.758Z,14.80
2019-05-05T19:51:54.121Z,10.67
2019-05-05T20:01:58.885Z,9.00
2019-05-05T20:12:04.139Z,5.23
2019-05-05T20:22:08.843Z,8.33
2019-05-05T20:32:14.034Z,9.43
2019-05-05T20:42:18.549Z,12.47
2019-05-05T20:52:23.748Z,8.57
2019-05-05T21:02:28.258Z,6.63
2019-05-05T21:12:40.128Z,7.43
2019-05-05T21:22:40.486Z,13.83
2019-05-05T21:32:45.028Z,9.40
2019-05-05T21:42:49.543Z,6.87
2019-05-05T21:52:55.647Z,9.70
2019-05-05T22:03:01.545Z,11.93
2019-05-05T22:13:07.122Z,11.57
2019-05-05T22:23:11.787Z,9.30
2019-05-05T22:33:16.605Z,10.30
2019-05-05T22:43:21.208Z,11.90
2019-05-05T22:53:25.816Z,10.17
2019-05-05T23:03:31.953Z,10.33
2019-05-05T23:13:36.653Z,11.70
2019-05-05T23:23:59.186Z,14.77
2019-05-05T23:34:04.097Z,12.23
2019-05-05T23:44:08.651Z,12.53
2019-05-05T23:54:13.643Z,13.33
